createdAt,value
2023-01-20T00:00:59.756Z,927.89
2023-01-20T00:02:00.689Z,927.89
2023-01-20T00:03:01.639Z,927.84
2023-01-20T00:04:01.935Z,927.87
2023-01-20T00:05:02.593Z,927.85
2023-01-20T00:06:03.119Z,927.89
2023-01-20T00:07:04.054Z,927.9
2023-01-20T00:08:05.087Z,927.9
2023-01-20T00:09:06.013Z,927.86
2023-01-20T00:10:06.214Z,927.89
2023-01-20T00:11:06.992Z,927.83
2023-01-20T00:12:07.950Z,927.88
2023-01-20T00:13:08.180Z,927.82
2023-01-20T00:14:09.128Z,927.84
2023-01-20T00:15:10.212Z,927.83
2023-01-20T00:16:10.718Z,927.83
2023-01-20T00:17:11.519Z,927.83
2023-01-20T00:18:12.155Z,927.82
2023-01-20T00:19:13.062Z,927.82
2023-01-20T00:20:13.695Z,927.82
2023-01-20T00:21:14.714Z,927.81
2023-01-20T00:22:15.349Z,927.84
2023-01-20T00:23:16.283Z,927.86
2023-01-20T00:24:16.928Z,927.84
2023-01-20T00:25:17.167Z,927.84
2023-01-20T00:26:17.804Z,927.82
2023-01-20T00:27:20.372Z,927.82
2023-01-20T00:28:18.345Z,927.86
2023-01-20T00:29:19.284Z,927.84
2023-01-20T00:30:19.928Z,927.83
2023-01-20T00:31:20.525Z,927.87
2023-01-20T00:32:21.172Z,927.88
2023-01-20T00:33:21.384Z,927.89
2023-01-20T00:34:22.316Z,927.89
2023-01-20T00:35:23.227Z,927.97
2023-01-20T00:36:24.156Z,927.9
2023-01-20T00:37:24.346Z,927.93
2023-01-20T00:38:25.261Z,927.9
2023-01-20T00:39:26.347Z,927.95
2023-01-20T00:40:26.705Z,927.97
2023-01-20T00:41:27.463Z,927.97
2023-01-20T00:42:27.979Z,927.95
2023-01-20T00:43:28.463Z,927.94
2023-01-20T00:44:29.398Z,927.95
2023-01-20T00:45:29.775Z,927.97
2023-01-20T00:46:30.102Z,928
2023-01-20T00:47:30.286Z,927.99
2023-01-20T00:48:30.781Z,928.05
2023-01-20T00:49:31.708Z,928.06
2023-01-20T00:50:32.347Z,928.12
2023-01-20T00:51:32.683Z,928.1
2023-01-20T00:52:33.627Z,928.12
2023-01-20T00:53:33.825Z,928.16
2023-01-20T00:54:34.029Z,928.16
2023-01-20T00:55:34.385Z,928.19
2023-01-20T00:56:35.005Z,928.15
2023-01-20T00:57:35.243Z,928.12
2023-01-20T00:58:36.156Z,928.13
2023-01-20T00:59:37.084Z,928.15
2023-01-20T01:00:38.137Z,928.16
2023-01-20T01:01:38.639Z,928.16
2023-01-20T01:02:38.622Z,928.16
2023-01-20T01:03:38.846Z,928.14
2023-01-20T01:04:39.748Z,928.17
2023-01-20T01:05:40.683Z,928.18
2023-01-20T01:06:41.370Z,928.21
2023-01-20T01:07:42.314Z,928.23
2023-01-20T01:08:42.517Z,928.2
2023-01-20T01:09:42.724Z,928.2
2023-01-20T01:10:43.635Z,928.25
2023-01-20T01:11:44.681Z,928.22
2023-01-20T01:12:44.900Z,928.24
2023-01-20T01:13:45.824Z,928.24
2023-01-20T01:14:46.491Z,928.24
2023-01-20T01:15:47.034Z,928.24
2023-01-20T01:16:47.855Z,928.3
2023-01-20T01:17:48.228Z,928.29
2023-01-20T01:18:48.906Z,928.32
2023-01-20T01:19:49.098Z,928.3
2023-01-20T01:20:49.721Z,928.3
2023-01-20T01:21:49.844Z,928.29
2023-01-20T01:22:50.039Z,928.29
2023-01-20T01:23:50.541Z,928.34
2023-01-20T01:24:51.479Z,928.3
2023-01-20T01:25:52.452Z,928.32
2023-01-20T01:26:53.354Z,928.31
2023-01-20T01:27:53.602Z,928.32
2023-01-20T01:28:54.095Z,928.38
2023-01-20T01:29:54.354Z,928.36
2023-01-20T01:30:54.700Z,928.38
2023-01-20T01:31:55.383Z,928.38
2023-01-20T01:32:55.570Z,928.39
2023-01-20T01:33:55.796Z,928.38
2023-01-20T01:34:55.905Z,928.44
2023-01-20T01:35:56.627Z,928.4
2023-01-20T01:36:57.567Z,928.41
2023-01-20T01:37:58.480Z,928.43
2023-01-20T01:38:59.395Z,928.43
2023-01-20T01:39:59.636Z,928.48
2023-01-20T01:41:00.663Z,928.45
2023-01-20T01:42:00.738Z,928.49
2023-01-20T01:43:01.377Z,928.48
2023-01-20T01:44:01.864Z,928.47
2023-01-20T01:45:02.387Z,928.39
2023-01-20T01:46:03.476Z,928.4
2023-01-20T01:47:04.212Z,928.41
2023-01-20T01:48:04.408Z,928.42
2023-01-20T01:49:05.356Z,928.37
2023-01-20T01:50:05.832Z,928.4
2023-01-20T01:51:06.779Z,928.38
2023-01-20T01:52:07.241Z,928.4
2023-01-20T01:53:07.723Z,928.41
2023-01-20T01:54:08.386Z,928.37
2023-01-20T01:55:09.318Z,928.36
2023-01-20T01:56:09.624Z,928.36
2023-01-20T01:57:10.126Z,928.34
2023-01-20T01:58:10.655Z,928.39
2023-01-20T01:59:11.593Z,928.37
2023-01-20T02:00:11.814Z,928.41
2023-01-20T02:01:12.308Z,928.4
2023-01-20T02:02:12.711Z,928.46
2023-01-20T02:03:13.627Z,928.41
2023-01-20T02:04:13.815Z,928.42
2023-01-20T02:05:14.504Z,928.41
2023-01-20T02:06:14.663Z,928.44
2023-01-20T02:07:15.294Z,928.47
2023-01-20T02:08:16.253Z,928.46
2023-01-20T02:09:16.756Z,928.46
2023-01-20T02:10:17.240Z,928.46
2023-01-20T02:11:18.143Z,928.48
2023-01-20T02:12:18.979Z,928.46
2023-01-20T02:13:19.493Z,928.5
2023-01-20T02:14:20.429Z,928.5
2023-01-20T02:15:21.364Z,928.52
2023-01-20T02:16:22.336Z,928.45
2023-01-20T02:17:23.215Z,928.52
2023-01-20T02:18:23.704Z,928.46
2023-01-20T02:19:24.633Z,928.54
2023-01-20T02:20:24.843Z,928.53
2023-01-20T02:21:25.790Z,928.52
2023-01-20T02:22:26.539Z,928.53
2023-01-20T02:23:26.748Z,928.56
2023-01-20T02:24:26.930Z,928.53
2023-01-20T02:25:27.143Z,928.62
2023-01-20T02:26:27.656Z,928.59
2023-01-20T02:27:28.303Z,928.61
2023-01-20T02:28:29.245Z,928.64
2023-01-20T02:29:29.436Z,928.61
2023-01-20T02:30:29.748Z,928.56
2023-01-20T02:31:30.348Z,928.58
2023-01-20T02:32:30.879Z,928.65
2023-01-20T02:33:31.815Z,928.63
2023-01-20T02:34:32.732Z,928.6
2023-01-20T02:35:33.362Z,928.61
2023-01-20T02:36:34.008Z,928.65
2023-01-20T02:37:34.269Z,928.6
2023-01-20T02:38:34.503Z,928.63
2023-01-20T02:39:34.853Z,928.62
2023-01-20T02:40:35.061Z,928.65
2023-01-20T02:41:35.287Z,928.67
2023-01-20T02:42:36.318Z,928.67
2023-01-20T02:43:37.244Z,928.67
2023-01-20T02:44:37.769Z,928.66
2023-01-20T02:45:38.027Z,928.66
2023-01-20T02:46:38.505Z,928.63
2023-01-20T02:47:39.140Z,928.67
2023-01-20T02:48:39.403Z,928.66
2023-01-20T02:49:40.314Z,928.72
2023-01-20T02:50:40.535Z,928.74
2023-01-20T02:51:41.459Z,928.72
2023-01-20T02:52:42.448Z,928.74
2023-01-20T02:53:42.980Z,928.74
2023-01-20T02:54:43.221Z,928.78
2023-01-20T02:55:43.857Z,928.8
2023-01-20T02:56:44.496Z,928.76
2023-01-20T02:57:45.411Z,928.78
2023-01-20T02:58:45.630Z,928.77
2023-01-20T02:59:45.861Z,928.79
2023-01-20T03:00:46.358Z,928.82
2023-01-20T03:01:47.251Z,928.79
2023-01-20T03:02:48.033Z,928.8
2023-01-20T03:03:48.736Z,928.84
2023-01-20T03:04:49.345Z,928.85
2023-01-20T03:05:49.686Z,928.82
2023-01-20T03:06:50.168Z,928.84
2023-01-20T03:07:50.388Z,928.87
2023-01-20T03:08:51.359Z,928.8
2023-01-20T03:09:52.274Z,928.85
2023-01-20T03:10:52.742Z,928.81
2023-01-20T03:11:53.684Z,928.86
2023-01-20T03:12:53.955Z,928.87
2023-01-20T03:13:54.465Z,928.83
2023-01-20T03:14:54.671Z,928.86
2023-01-20T03:15:55.035Z,928.86
2023-01-20T03:16:55.715Z,928.87
2023-01-20T03:17:56.631Z,928.87
2023-01-20T03:18:57.629Z,928.86
2023-01-20T03:19:58.530Z,928.86
2023-01-20T03:20:59.027Z,928.87
2023-01-20T03:21:59.270Z,928.87
2023-01-20T03:23:00.025Z,928.97
2023-01-20T03:24:00.295Z,928.96
2023-01-20T03:25:00.985Z,928.92
2023-01-20T03:26:01.127Z,928.97
2023-01-20T03:27:02.049Z,929.05
2023-01-20T03:28:02.990Z,928.98
2023-01-20T03:29:03.235Z,929
2023-01-20T03:30:04.189Z,928.99
2023-01-20T03:31:04.801Z,929
2023-01-20T03:32:05.104Z,928.99
2023-01-20T03:33:05.425Z,928.99
2023-01-20T03:34:05.758Z,929.02
2023-01-20T03:35:05.989Z,929.05
2023-01-20T03:36:06.355Z,929.11
2023-01-20T03:37:06.558Z,929.06
2023-01-20T03:38:06.885Z,929.07
2023-01-20T03:39:07.790Z,929.08
2023-01-20T03:40:08.274Z,929.08
2023-01-20T03:41:09.194Z,929.1
2023-01-20T03:42:09.414Z,929.14
2023-01-20T03:43:10.452Z,929.07
2023-01-20T03:44:11.383Z,929.09
2023-01-20T03:45:11.750Z,929.1
2023-01-20T03:46:12.240Z,929.14
2023-01-20T03:47:12.898Z,929.15
2023-01-20T03:48:13.099Z,929.18
2023-01-20T03:49:13.439Z,929.21
2023-01-20T03:50:13.627Z,929.21
2023-01-20T03:51:14.552Z,929.23
2023-01-20T03:52:14.893Z,929.24
2023-01-20T03:53:24.508Z,929.23
2023-01-20T03:54:25.438Z,929.25
2023-01-20T03:55:25.644Z,929.28
2023-01-20T03:56:25.844Z,929.29
2023-01-20T03:57:26.033Z,929.29
2023-01-20T03:58:26.383Z,929.26
2023-01-20T03:59:27.078Z,929.27
2023-01-20T04:00:29.542Z,929.29
2023-01-20T04:01:28.396Z,929.28
2023-01-20T04:02:28.748Z,929.29
2023-01-20T04:03:29.230Z,929.31
2023-01-20T04:04:30.078Z,929.31
2023-01-20T04:05:30.564Z,929.3
2023-01-20T04:06:31.504Z,929.35
2023-01-20T04:07:32.429Z,929.33
2023-01-20T04:08:33.062Z,929.29
2023-01-20T04:09:33.726Z,929.34
2023-01-20T04:10:34.219Z,929.36
2023-01-20T04:11:35.156Z,929.36
2023-01-20T04:12:36.186Z,929.35
2023-01-20T04:13:36.493Z,929.35
2023-01-20T04:14:37.181Z,929.36
2023-01-20T04:15:37.739Z,929.38
2023-01-20T04:16:37.817Z,929.38
2023-01-20T04:17:38.104Z,929.4
2023-01-20T04:18:39.023Z,929.4
2023-01-20T04:19:39.277Z,929.41
2023-01-20T04:20:40.204Z,929.43
2023-01-20T04:21:41.129Z,929.43
2023-01-20T04:22:41.350Z,929.43
2023-01-20T04:23:41.695Z,929.44
2023-01-20T04:24:41.934Z,929.43
2023-01-20T04:25:42.185Z,929.43
2023-01-20T04:26:42.386Z,929.47
2023-01-20T04:27:43.026Z,929.5
2023-01-20T04:28:43.956Z,929.47
2023-01-20T04:29:44.909Z,929.52
2023-01-20T04:30:45.938Z,929.53
2023-01-20T04:31:46.145Z,929.51
2023-01-20T04:32:46.697Z,929.55
2023-01-20T04:33:47.722Z,929.5
2023-01-20T04:34:47.983Z,929.59
2023-01-20T04:35:48.904Z,929.54
2023-01-20T04:36:49.401Z,929.56
2023-01-20T04:37:50.303Z,929.53
2023-01-20T04:38:51.244Z,929.55
2023-01-20T04:39:52.160Z,929.55
2023-01-20T04:40:52.665Z,929.57
2023-01-20T04:41:53.583Z,929.6
2023-01-20T04:42:54.234Z,929.6
2023-01-20T04:43:55.264Z,929.59
2023-01-20T04:44:56.235Z,929.58
2023-01-20T04:45:56.512Z,929.62
2023-01-20T04:46:56.875Z,929.59
2023-01-20T04:47:57.413Z,929.63
2023-01-20T04:48:58.375Z,929.63
2023-01-20T04:49:59.055Z,929.68
2023-01-20T04:50:59.296Z,929.69
2023-01-20T04:52:00.022Z,929.66
2023-01-20T04:53:01.025Z,929.74
2023-01-20T04:54:01.741Z,929.72
2023-01-20T04:55:02.651Z,929.75
2023-01-20T04:56:03.429Z,929.75
2023-01-20T04:57:03.627Z,929.73
2023-01-20T04:58:04.537Z,929.72
2023-01-20T04:59:05.506Z,929.77
2023-01-20T05:00:06.428Z,929.77
2023-01-20T05:01:06.938Z,929.79
2023-01-20T05:02:07.243Z,929.79
2023-01-20T05:03:08.054Z,929.81
2023-01-20T05:04:08.498Z,929.84
2023-01-20T05:05:09.415Z,929.83
2023-01-20T05:06:10.107Z,929.83
2023-01-20T05:07:11.000Z,929.88
2023-01-20T05:08:11.197Z,929.92
2023-01-20T05:09:11.395Z,929.91
2023-01-20T05:10:13.214Z,929.92
2023-01-20T05:11:12.812Z,929.93
2023-01-20T05:12:13.006Z,929.95
2023-01-20T05:13:13.953Z,929.98
2023-01-20T05:14:14.764Z,930.01
2023-01-20T05:15:15.956Z,930.04
2023-01-20T05:16:16.499Z,930.08
2023-01-20T05:17:17.109Z,930.07
2023-01-20T05:18:17.385Z,930.04
2023-01-20T05:19:18.306Z,930.05
2023-01-20T05:20:18.816Z,930.07
2023-01-20T05:21:19.313Z,930.02
2023-01-20T05:22:19.941Z,930.08
2023-01-20T05:23:20.868Z,930.07
2023-01-20T05:24:21.496Z,930.07
2023-01-20T05:25:21.709Z,930.08
2023-01-20T05:26:22.195Z,930.07
2023-01-20T05:27:23.119Z,930.11
2023-01-20T05:28:24.042Z,930.09
2023-01-20T05:29:24.250Z,930.12
2023-01-20T05:30:25.283Z,930.15
2023-01-20T05:31:26.108Z,930.13
2023-01-20T05:32:26.573Z,930.13
2023-01-20T05:33:26.844Z,930.18
2023-01-20T05:34:27.550Z,930.17
2023-01-20T05:35:28.484Z,930.15
2023-01-20T05:36:29.405Z,930.16
2023-01-20T05:37:29.780Z,930.18
2023-01-20T05:38:30.742Z,930.21
2023-01-20T05:39:31.676Z,930.2
2023-01-20T05:40:32.587Z,930.21
2023-01-20T05:41:33.218Z,930.2
2023-01-20T05:42:34.179Z,930.24
2023-01-20T05:43:35.106Z,930.18
2023-01-20T05:44:35.446Z,930.2
2023-01-20T05:45:35.669Z,930.26
2023-01-20T05:46:36.674Z,930.25
2023-01-20T05:47:37.085Z,930.25
2023-01-20T05:48:37.460Z,930.29
2023-01-20T05:49:37.663Z,930.32
2023-01-20T05:50:38.343Z,930.3
2023-01-20T05:51:38.965Z,930.29
2023-01-20T05:52:39.297Z,930.33
2023-01-20T05:53:39.780Z,930.35
2023-01-20T05:54:40.769Z,930.38
2023-01-20T05:55:41.681Z,930.34
2023-01-20T05:56:41.868Z,930.4
2023-01-20T05:57:42.099Z,930.37
2023-01-20T05:58:42.582Z,930.41
2023-01-20T05:59:43.492Z,930.43
2023-01-20T06:00:44.486Z,930.43
2023-01-20T06:01:44.807Z,930.43
2023-01-20T06:02:45.377Z,930.49
2023-01-20T06:03:46.237Z,930.45
2023-01-20T06:04:46.950Z,930.47
2023-01-20T06:05:47.133Z,930.47
2023-01-20T06:06:47.376Z,930.49
2023-01-20T06:07:47.882Z,930.48
2023-01-20T06:08:48.093Z,930.49
2023-01-20T06:09:48.586Z,930.49
2023-01-20T06:10:50.555Z,930.46
2023-01-20T06:11:49.814Z,930.5
2023-01-20T06:12:50.033Z,930.57
2023-01-20T06:13:50.316Z,930.53
2023-01-20T06:14:50.431Z,930.54
2023-01-20T06:15:51.424Z,930.55
2023-01-20T06:16:51.620Z,930.56
2023-01-20T06:17:52.137Z,930.57
2023-01-20T06:18:52.681Z,930.55
2023-01-20T06:19:52.883Z,930.6
2023-01-20T06:20:53.507Z,930.6
2023-01-20T06:21:53.782Z,930.58
2023-01-20T06:22:53.988Z,930.59
2023-01-20T06:23:54.491Z,930.6
2023-01-20T06:24:55.542Z,930.67
2023-01-20T06:25:55.894Z,930.62
2023-01-20T06:26:56.457Z,930.65
2023-01-20T06:27:57.458Z,930.64
2023-01-20T06:28:58.094Z,930.66
2023-01-20T06:29:58.717Z,930.66
2023-01-20T06:30:59.476Z,930.69
2023-01-20T06:31:59.729Z,930.69
2023-01-20T06:32:59.951Z,930.71
2023-01-20T06:34:00.211Z,930.72
2023-01-20T06:35:01.197Z,930.72
2023-01-20T06:36:01.665Z,930.75
2023-01-20T06:37:01.865Z,930.74
2023-01-20T06:38:02.523Z,930.79
2023-01-20T06:39:03.443Z,930.78
2023-01-20T06:40:04.386Z,930.79
2023-01-20T06:41:05.029Z,930.82
2023-01-20T06:42:05.674Z,930.87
2023-01-20T06:43:06.200Z,930.86
2023-01-20T06:44:07.119Z,930.91
2023-01-20T06:45:08.146Z,930.94
2023-01-20T06:46:08.487Z,930.93
2023-01-20T06:47:08.654Z,930.96
2023-01-20T06:48:09.500Z,930.98
2023-01-20T06:49:09.898Z,930.95
2023-01-20T06:50:10.138Z,931.02
2023-01-20T06:51:11.089Z,931.03
2023-01-20T06:52:11.599Z,931
2023-01-20T06:53:12.116Z,931
2023-01-20T06:54:12.333Z,931.05
2023-01-20T06:55:13.023Z,931.03
2023-01-20T06:56:12.626Z,931.09
2023-01-20T06:57:13.546Z,931.1
2023-01-20T06:58:14.169Z,931.09
2023-01-20T06:59:14.757Z,931.1
2023-01-20T07:00:15.760Z,931.07
2023-01-20T07:01:16.591Z,931.09
2023-01-20T07:02:16.985Z,931.11
2023-01-20T07:03:17.591Z,931.12
2023-01-20T07:04:17.870Z,931.15
2023-01-20T07:05:18.923Z,931.18
2023-01-20T07:06:19.110Z,931.17
2023-01-20T07:07:19.633Z,931.19
2023-01-20T07:08:20.552Z,931.22
2023-01-20T07:09:21.497Z,931.23
2023-01-20T07:10:21.774Z,931.26
2023-01-20T07:11:22.743Z,931.23
2023-01-20T07:12:23.444Z,931.27
2023-01-20T07:13:24.382Z,931.24
2023-01-20T07:14:25.298Z,931.29
2023-01-20T07:15:26.147Z,931.27
2023-01-20T07:16:27.206Z,931.33
2023-01-20T07:17:27.448Z,931.35
2023-01-20T07:18:28.375Z,931.36
2023-01-20T07:19:28.934Z,931.43
2023-01-20T07:20:29.202Z,931.42
2023-01-20T07:21:30.176Z,931.44
2023-01-20T07:22:30.840Z,931.45
2023-01-20T07:23:31.336Z,931.45
2023-01-20T07:24:31.840Z,931.48
2023-01-20T07:25:32.897Z,931.49
2023-01-20T07:26:33.117Z,931.48
2023-01-20T07:27:33.638Z,931.49
2023-01-20T07:28:34.558Z,931.47
2023-01-20T07:29:34.786Z,931.49
2023-01-20T07:30:35.321Z,931.49
2023-01-20T07:31:35.893Z,931.51
2023-01-20T07:32:36.614Z,931.49
2023-01-20T07:33:36.863Z,931.52
2023-01-20T07:34:37.437Z,931.55
2023-01-20T07:35:38.387Z,931.57
2023-01-20T07:36:38.645Z,931.57
2023-01-20T07:37:39.284Z,931.63
2023-01-20T07:38:39.680Z,931.61
2023-01-20T07:39:40.164Z,931.65
2023-01-20T07:40:41.092Z,931.62
2023-01-20T07:41:41.298Z,931.66
2023-01-20T07:42:41.793Z,931.74
2023-01-20T07:43:42.006Z,931.72
2023-01-20T07:44:42.536Z,931.71
2023-01-20T07:45:43.577Z,931.76
2023-01-20T07:46:43.836Z,931.78
2023-01-20T07:47:44.765Z,931.76
2023-01-20T07:48:45.707Z,931.78
2023-01-20T07:49:46.264Z,931.82
2023-01-20T07:50:47.229Z,931.87
2023-01-20T07:51:48.212Z,931.89
2023-01-20T07:52:49.140Z,931.9
2023-01-20T07:53:49.782Z,931.89
2023-01-20T07:54:50.275Z,931.9
2023-01-20T07:55:51.067Z,931.85
2023-01-20T07:56:51.264Z,931.89
2023-01-20T07:57:51.902Z,931.88
2023-01-20T07:58:52.392Z,931.92
2023-01-20T07:59:52.781Z,931.9
2023-01-20T08:00:53.047Z,931.92
2023-01-20T08:01:53.709Z,931.94
2023-01-20T08:02:53.864Z,931.92
2023-01-20T08:03:54.099Z,931.97
2023-01-20T08:04:54.770Z,931.98
2023-01-20T08:05:55.368Z,931.97
2023-01-20T08:06:56.302Z,931.97
2023-01-20T08:07:56.521Z,932
2023-01-20T08:08:58.780Z,932.01
2023-01-20T08:09:57.075Z,932.04
2023-01-20T08:10:57.896Z,932.07
2023-01-20T08:11:58.825Z,932.1
2023-01-20T08:12:59.307Z,932.08
2023-01-20T08:13:59.794Z,932.1
2023-01-20T08:15:00.027Z,932.11
2023-01-20T08:16:00.392Z,932.1
2023-01-20T08:17:00.937Z,932.15
2023-01-20T08:18:01.864Z,932.16
2023-01-20T08:19:02.820Z,932.15
2023-01-20T08:20:03.226Z,932.15
2023-01-20T08:21:03.455Z,932.22
2023-01-20T08:22:04.154Z,932.25
2023-01-20T08:23:04.657Z,932.2
2023-01-20T08:24:05.174Z,932.24
2023-01-20T08:25:06.136Z,932.23
2023-01-20T08:26:06.976Z,932.25
2023-01-20T08:27:07.649Z,932.27
2023-01-20T08:28:08.179Z,932.27
2023-01-20T08:29:09.110Z,932.3
2023-01-20T08:30:09.303Z,932.29
2023-01-20T08:31:09.621Z,932.32
2023-01-20T08:32:10.534Z,932.33
2023-01-20T08:33:10.744Z,932.37
2023-01-20T08:34:10.966Z,932.34
2023-01-20T08:35:11.246Z,932.38
2023-01-20T08:36:12.274Z,932.39
2023-01-20T08:37:12.969Z,932.39
2023-01-20T08:38:13.634Z,932.42
2023-01-20T08:39:13.875Z,932.41
2023-01-20T08:40:14.115Z,932.42
2023-01-20T08:41:14.475Z,932.46
2023-01-20T08:42:14.730Z,932.46
2023-01-20T08:43:14.942Z,932.5
2023-01-20T08:44:15.567Z,932.47
2023-01-20T08:45:16.323Z,932.48
2023-01-20T08:46:16.975Z,932.5
2023-01-20T08:47:17.539Z,932.52
2023-01-20T08:48:17.756Z,932.51
2023-01-20T08:49:17.977Z,932.55
2023-01-20T08:50:18.670Z,932.54
2023-01-20T08:51:19.490Z,932.6
2023-01-20T08:52:20.018Z,932.58
2023-01-20T08:53:20.249Z,932.63
2023-01-20T08:54:21.176Z,932.66
2023-01-20T08:55:21.669Z,932.64
2023-01-20T08:56:22.134Z,932.65
2023-01-20T08:57:23.113Z,932.67
2023-01-20T08:58:25.435Z,932.7
2023-01-20T08:59:24.723Z,932.7
2023-01-20T09:00:24.962Z,932.72
2023-01-20T09:01:25.550Z,932.76
2023-01-20T09:02:26.158Z,932.73
2023-01-20T09:03:26.197Z,932.8
2023-01-20T09:04:26.323Z,932.76
2023-01-20T09:05:27.378Z,932.84
2023-01-20T09:06:27.755Z,932.81
2023-01-20T09:07:28.337Z,932.81
2023-01-20T09:08:29.278Z,932.83
2023-01-20T09:09:29.833Z,932.82
2023-01-20T09:10:30.863Z,932.89
2023-01-20T09:11:31.862Z,932.86
2023-01-20T09:12:32.337Z,932.85
2023-01-20T09:13:32.864Z,932.88
2023-01-20T09:14:33.349Z,932.93
2023-01-20T09:15:33.606Z,932.93
2023-01-20T09:16:34.303Z,932.99
2023-01-20T09:17:35.365Z,933
2023-01-20T09:18:36.354Z,933.01
2023-01-20T09:19:36.900Z,932.99
2023-01-20T09:20:37.496Z,933.02
2023-01-20T09:21:38.009Z,933.04
2023-01-20T09:22:38.802Z,933.06
2023-01-20T09:23:38.808Z,933.07
2023-01-20T09:24:39.061Z,933.12
2023-01-20T09:25:40.004Z,933.03
2023-01-20T09:26:41.024Z,933.06
2023-01-20T09:27:41.636Z,933.1
2023-01-20T09:28:42.130Z,933.08
2023-01-20T09:29:42.445Z,933.07
2023-01-20T09:30:42.921Z,933.09
2023-01-20T09:31:43.669Z,933.11
2023-01-20T09:32:44.301Z,933.11
2023-01-20T09:33:44.553Z,933.16
2023-01-20T09:34:44.884Z,933.13
2023-01-20T09:35:45.450Z,933.17
2023-01-20T09:36:46.449Z,933.12
2023-01-20T09:37:47.398Z,933.13
2023-01-20T09:38:47.897Z,933.19
2023-01-20T09:39:48.147Z,933.16
2023-01-20T09:40:48.982Z,933.18
2023-01-20T09:41:49.308Z,933.2
2023-01-20T09:42:50.280Z,933.2
2023-01-20T09:43:50.928Z,933.21
2023-01-20T09:44:51.484Z,933.24
2023-01-20T09:45:52.163Z,933.2
2023-01-20T09:46:52.242Z,933.23
2023-01-20T09:47:52.466Z,933.3
2023-01-20T09:48:52.689Z,933.3
2023-01-20T09:49:53.668Z,933.27
2023-01-20T09:50:54.102Z,933.3
2023-01-20T09:51:54.645Z,933.24
2023-01-20T09:52:55.587Z,933.32
2023-01-20T09:53:56.539Z,933.3
2023-01-20T09:54:56.761Z,933.33
2023-01-20T09:55:57.429Z,933.32
2023-01-20T09:56:58.251Z,933.31
2023-01-20T09:57:59.256Z,933.33
2023-01-20T09:58:59.782Z,933.3
2023-01-20T10:00:00.485Z,933.33
2023-01-20T10:01:01.274Z,933.34
2023-01-20T10:02:01.828Z,933.3
2023-01-20T10:03:02.794Z,933.35
2023-01-20T10:04:04.959Z,933.32
2023-01-20T10:05:04.616Z,933.33
2023-01-20T10:06:04.982Z,933.37
2023-01-20T10:07:06.030Z,933.32
2023-01-20T10:08:07.052Z,933.34
2023-01-20T10:09:07.295Z,933.38
2023-01-20T10:10:07.517Z,933.36
2023-01-20T10:11:08.462Z,933.39
2023-01-20T10:12:08.605Z,933.4
2023-01-20T10:13:09.149Z,933.38
2023-01-20T10:14:09.791Z,933.39
2023-01-20T10:15:10.439Z,933.35
2023-01-20T10:16:11.413Z,933.39
2023-01-20T10:17:11.854Z,933.37
2023-01-20T10:18:12.249Z,933.38
2023-01-20T10:19:12.780Z,933.42
2023-01-20T10:20:13.729Z,933.39
2023-01-20T10:21:13.995Z,933.43
2023-01-20T10:22:14.511Z,933.42
2023-01-20T10:23:15.154Z,933.39
2023-01-20T10:24:15.772Z,933.38
2023-01-20T10:25:15.998Z,933.41
2023-01-20T10:26:16.269Z,933.37
2023-01-20T10:27:16.581Z,933.4
2023-01-20T10:28:16.815Z,933.36
2023-01-20T10:29:17.336Z,933.37
2023-01-20T10:30:18.390Z,933.39
2023-01-20T10:31:18.646Z,933.38
2023-01-20T10:32:19.008Z,933.4
2023-01-20T10:33:19.784Z,933.38
2023-01-20T10:34:20.433Z,933.39
2023-01-20T10:35:21.451Z,933.41
2023-01-20T10:36:22.043Z,933.42
2023-01-20T10:37:23.027Z,933.4
2023-01-20T10:38:23.254Z,933.43
2023-01-20T10:39:24.214Z,933.47
2023-01-20T10:40:24.471Z,933.43
2023-01-20T10:41:24.706Z,933.45
2023-01-20T10:42:25.056Z,933.44
2023-01-20T10:43:26.019Z,933.43
2023-01-20T10:44:26.527Z,933.48
2023-01-20T10:45:27.507Z,933.5
2023-01-20T10:46:28.052Z,933.48
2023-01-20T10:47:29.002Z,933.46
2023-01-20T10:48:29.405Z,933.45
2023-01-20T10:49:29.608Z,933.47
2023-01-20T10:50:30.361Z,933.47
2023-01-20T10:51:30.927Z,933.47
2023-01-20T10:52:31.147Z,933.5
2023-01-20T10:53:31.550Z,933.49
2023-01-20T10:54:31.814Z,933.49
2023-01-20T10:55:32.040Z,933.49
2023-01-20T10:56:33.075Z,933.52
2023-01-20T10:57:33.348Z,933.48
2023-01-20T10:58:34.285Z,933.46
2023-01-20T10:59:34.487Z,933.47
2023-01-20T11:00:35.152Z,933.47
2023-01-20T11:01:35.667Z,933.46
2023-01-20T11:02:35.960Z,933.49
2023-01-20T11:03:36.165Z,933.45
2023-01-20T11:04:37.119Z,933.46
2023-01-20T11:05:37.358Z,933.48
2023-01-20T11:06:37.830Z,933.41
2023-01-20T11:07:38.007Z,933.45
2023-01-20T11:08:38.298Z,933.45
2023-01-20T11:09:39.085Z,933.45
2023-01-20T11:10:39.581Z,933.44
2023-01-20T11:11:39.794Z,933.47
2023-01-20T11:12:40.043Z,933.47
2023-01-20T11:13:40.296Z,933.44
2023-01-20T11:14:40.513Z,933.46
2023-01-20T11:15:41.397Z,933.44
2023-01-20T11:16:41.795Z,933.45
2023-01-20T11:17:42.856Z,933.45
2023-01-20T11:18:43.137Z,933.48
2023-01-20T11:19:43.337Z,933.49
2023-01-20T11:20:44.321Z,933.47
2023-01-20T11:21:44.598Z,933.45
2023-01-20T11:22:45.522Z,933.51
2023-01-20T11:23:45.922Z,933.51
2023-01-20T11:24:46.918Z,933.5
2023-01-20T11:25:47.414Z,933.47
2023-01-20T11:26:48.063Z,933.48
2023-01-20T11:27:48.205Z,933.49
2023-01-20T11:28:49.133Z,933.51
2023-01-20T11:29:49.363Z,933.52
2023-01-20T11:30:49.597Z,933.48
2023-01-20T11:31:50.099Z,933.51
2023-01-20T11:32:50.669Z,933.57
2023-01-20T11:33:51.411Z,933.52
2023-01-20T11:34:52.403Z,933.49
2023-01-20T11:35:53.061Z,933.52
2023-01-20T11:36:53.645Z,933.54
2023-01-20T11:37:54.350Z,933.56
2023-01-20T11:38:54.879Z,933.55
2023-01-20T11:39:55.216Z,933.53
2023-01-20T11:40:55.471Z,933.51
2023-01-20T11:41:55.838Z,933.54
2023-01-20T11:42:56.816Z,933.58
2023-01-20T11:43:57.048Z,933.55
2023-01-20T11:45:05.675Z,933.54
2023-01-20T11:45:58.471Z,933.55
2023-01-20T11:46:58.798Z,933.54
2023-01-20T11:47:58.889Z,933.52
2023-01-20T11:48:59.225Z,933.52
2023-01-20T11:49:59.453Z,933.55
2023-01-20T11:51:00.253Z,933.52
2023-01-20T11:52:00.906Z,933.51
2023-01-20T11:53:01.153Z,933.49
2023-01-20T11:54:01.794Z,933.45
2023-01-20T11:55:02.014Z,933.46
2023-01-20T11:56:02.962Z,933.47
2023-01-20T11:57:03.160Z,933.46
2023-01-20T11:58:03.601Z,933.44
2023-01-20T11:59:03.794Z,933.48
2023-01-20T12:00:04.307Z,933.49
2023-01-20T12:01:05.017Z,933.49
2023-01-20T12:02:05.677Z,933.46
2023-01-20T12:03:06.506Z,933.47
2023-01-20T12:04:06.853Z,933.49
2023-01-20T12:05:07.391Z,933.44
2023-01-20T12:06:07.704Z,933.46
2023-01-20T12:07:08.057Z,933.46
2023-01-20T12:08:09.130Z,933.46
2023-01-20T12:09:10.064Z,933.49
2023-01-20T12:10:11.011Z,933.53
2023-01-20T12:11:11.119Z,933.53
2023-01-20T12:12:11.319Z,933.49
2023-01-20T12:13:12.318Z,933.54
2023-01-20T12:14:12.546Z,933.56
2023-01-20T12:15:13.185Z,933.53
2023-01-20T12:16:13.727Z,933.55
2023-01-20T12:17:13.979Z,933.57
2023-01-20T12:18:14.984Z,933.56
2023-01-20T12:19:15.728Z,933.55
2023-01-20T12:20:17.067Z,933.56
2023-01-20T12:21:17.307Z,933.59
2023-01-20T12:22:17.925Z,933.56
2023-01-20T12:23:18.852Z,933.57
2023-01-20T12:24:19.104Z,933.61
2023-01-20T12:25:19.815Z,933.57
2023-01-20T12:26:20.343Z,933.59
2023-01-20T12:27:20.553Z,933.57
2023-01-20T12:28:21.144Z,933.6
2023-01-20T12:29:21.365Z,933.6
2023-01-20T12:30:22.993Z,933.64
2023-01-20T12:31:21.936Z,933.6
2023-01-20T12:32:22.762Z,933.61
2023-01-20T12:33:23.107Z,933.54
2023-01-20T12:34:23.566Z,933.63
2023-01-20T12:35:24.095Z,933.63
2023-01-20T12:36:24.480Z,933.65
2023-01-20T12:37:24.752Z,933.68
2023-01-20T12:38:25.195Z,933.63
2023-01-20T12:39:25.540Z,933.62